• Join FlightAware (Why Join?)
  • Login
  • US Flag 
07:01PM EDT


 

Airport Tracker/Info


-or-


 

Live Flight TrackerFlight Track Log ✈ N449ND ✈ 20-Mar-2014 ✈ KAPF - KFPR

Flight Track Log - Related Links

Times and Time Zones

All times are in EDT time to prevent confusion due to time zone crossing. See the N449ND flight status page for this flight to view local times or setup timezone preferences in your user account.

Time Position Orientation Groundspeed Altitude Reporting Facility
EDT Latitude Longitude Course Direction KTS MPH feet Rate Location/Type
09:39PM 26.2563 -81.6437 42° Northeast  Level FlightAware Approximate
09:40PM 26.2753 -81.6247 42° Northeast  Level FlightAware Approximate
09:41PM 26.2939 -81.6051 44° Northeast  Level FlightAware Approximate
09:42PM 26.3122 -81.5852 44° Northeast  Level FlightAware Approximate
09:43PM 26.3305 -81.5653 44° Northeast  Level FlightAware Approximate
09:44PM 26.3487 -81.5454 44° Northeast  Level FlightAware Approximate
09:45PM 26.3670 -81.5255 44° Northeast  Level FlightAware Approximate
09:46PM 26.3853 -81.5056 44° Northeast  Level FlightAware Approximate
09:47PM 26.4035 -81.4856 44° Northeast  Level FlightAware Approximate
09:48PM 26.4218 -81.4657 44° Northeast  Level FlightAware Approximate
09:49PM 26.4401 -81.4457 44° Northeast  Level FlightAware Approximate
09:50PM 26.4583 -81.4258 44° Northeast  Level FlightAware Approximate
09:51PM 26.4762 -81.4054 47° Northeast  Level FlightAware Approximate
09:52PM 26.4938 -81.3847 47° Northeast  Level FlightAware Approximate
09:52PM 26.4506 -81.5319 47° Northeast 104 120 5,100  Level Miami Center
09:53PM 26.5113 -81.3640 47° Northeast  Level FlightAware Approximate
09:53PM 26.4678 -81.5094 49° Northeast 99 114 5,100  Level Miami Center
09:54PM 26.5289 -81.3433 47° Northeast  Level FlightAware Approximate
09:54PM 26.4936 -81.4894 35° Northeast 93 107 5,000  Level Miami Center
09:55PM 26.5464 -81.3225 47° Northeast  Level FlightAware Approximate
09:55PM 26.5150 -81.4719 36° Northeast 93 107 5,000  Level Miami Center
09:56PM 26.5640 -81.3018 47° Northeast  Level FlightAware Approximate
09:56PM 26.5386 -81.4519 37° Northeast 98 113 5,000  Level Miami Center
09:57PM 26.5600 -81.4342 37° Northeast 98 113 5,000  Level Miami Center
09:58PM 26.5836 -81.4164 34° Northeast 98 113 5,000  Level Miami Center
09:59PM 26.6072 -81.3989 34° Northeast 98 113 5,000  Level Miami Center
10:00PM 26.6286 -81.3764 43° Northeast 103 119 5,100  Climbing Miami Center
10:01PM 26.6400 -81.3489 65° Northeast 97 112 5,100 -60 Level Miami Center
10:02PM 26.6533 -81.3217 61° Northeast 97 112 5,000 -60 Descending Miami Center
10:03PM 26.6583 -81.2917 79° East 97 112 5,000  Level Miami Center
10:04PM 26.6614 -81.2639 83° East 97 112 5,000  Level Miami Center
10:05PM 26.6706 -81.2339 71° East 97 112 5,000  Level Miami Center
10:06PM 26.6778 -81.2039 75° East 97 112 5,000  Level Miami Center
10:07PM 26.6828 -81.1739 79° East 97 112 5,000 180 Level Miami Center
10:08PM 26.6897 -81.1486 73° East 87 100 5,400 360 Climbing Miami Center
10:09PM 26.6947 -81.1208 79° East 87 100 5,800 360 Climbing Miami Center
10:10PM 26.7042 -81.0886 72° East 87 100 6,200 360 Climbing Miami Center
10:11PM 26.7092 -81.0564 80° East 94 108 6,600 360 Climbing Miami Center
10:12PM 26.7144 -81.0239 80° East 94 108 7,000 180 Climbing Miami Center
10:13PM 26.7194 -80.9894 81° East 99 114 7,000  Level Miami Center
10:14PM 26.7286 -80.9594 71° East 104 120 7,100  Climbing Miami Center
10:15PM 26.7336 -80.9294 79° East 104 120 7,100 -60 Level Miami Center
10:16PM 26.7431 -80.8925 74° East 104 120 7,000 -60 Descending Miami Center
10:17PM 26.7503 -80.8578 77° East 109 125 7,000  Level Miami Center
10:18PM 26.7408 -80.8272 109° East 104 120 7,000  Level Miami Center
10:19PM 26.7289 -80.7967 114° Southeast 109 125 7,100 -300 Climbing Miami Center
10:20PM 26.7217 -80.7639 104° East 109 125 6,500 -600 Descending Miami Center
10:21PM 26.7058 -80.7308 118° Southeast 109 125 5,900 -600 Descending Miami Center
10:22PM 26.7025 -80.6981 96° East 109 125 5,300 -180 Descending Miami Center
10:38PM 27.0239 -80.3731 90° East 100 115 3,000 -180 Descending Miami Center
10:39PM 26.6668 -80.2427 90° East  Level FlightAware Approximate
10:39PM 27.0472 -80.3597 27° Northeast 100 115 3,000  Level Miami Center
10:40PM 26.6668 -80.2143 90° East  Level FlightAware Approximate
10:40PM 27.0706 -80.3464 27° Northeast 117 135 3,000  Level Miami Center
10:41PM 26.6668 -80.1860 90° East  Level FlightAware Approximate
10:41PM 27.0917 -80.3378 20° North 99 114 3,700  Level Miami Center
10:42PM 26.6667 -80.1577 90° East  Level FlightAware Approximate
10:42PM 27.1186 -80.3431 350° North 87 100 4,000  Level Miami Center
10:43PM 26.6667 -80.1293 90° East  Level FlightAware Approximate
10:43PM 27.1517 -80.3511 348° North 99 114 4,000  Level Miami Center
10:44PM 26.6667 -80.1010 90° East  Level FlightAware Approximate
10:44PM 27.1828 -80.3592 347° North 110 127 4,000  Level Miami Center
10:45PM 27.2139 -80.3694 344° North 110 127 4,000  Level Miami Center
10:46PM 27.2408 -80.3772 346° North 105 121 4,000  Level Miami Center
10:47PM 27.2700 -80.3828 350° North 105 121 4,000  Level Miami Center
10:48PM 27.3033 -80.3908 348° North 105 121 4,000  Level Miami Center
10:49PM 27.3322 -80.3986 347° North 105 121 4,000  Level Miami Center
10:50PM 27.3572 -80.4064 345° North 105 121 4,000  Level Miami Center
10:51PM 27.3864 -80.4097 354° North 105 121 4,000  Level Miami Center
10:52PM 27.4153 -80.4175 347° North 105 121 4,000  Level Miami Center
10:53PM 27.4444 -80.4256 346° North 105 121 4,000  Level Miami Center
10:54PM 27.4733 -80.4311 350° North 105 121 4,000  Level Miami Center
10:55PM 27.4983 -80.4367 349° North 105 121 4,000  Level Miami Center
10:56PM 27.5275 -80.4444 347° North 105 121 4,000  Level Miami Center
10:57PM 27.5586 -80.4525 347° North 105 121 4,100  Climbing Miami Center
10:58PM 27.5642 -80.4786 284° West 84 97 4,000 -60 Descending Miami Center
10:59PM 27.5633 -80.5089 268° West 87 100 4,000 -300 Level Miami Center
11:00PM 27.5689 -80.5347 284° West 99 114 3,500 -900 Descending Miami Center
11:01PM 27.5847 -80.5681 298° West 105 121 2,300 -900 Descending Miami Center
11:02PM 27.6050 -80.5944 311° West 110 127 1,700 -360 Descending Miami Center
11:03PM 27.6294 -80.6142 324° Northwest 110 127 1,600 -60 Descending Miami Center
11:04PM 27.6564 -80.6219 346° North 110 127 1,600  Level Miami Center
11:05PM 27.6856 -80.6253 354° North 105 121 1,600  Level Miami Center
11:06PM 27.7131 -80.6122 23° Northeast 98 113 1,600  Level Miami Center
11:07PM 27.7139 -80.5864 88° East 76 87 1,600  Level Miami Center
11:08PM 27.7039 -80.5625 115° Southeast 82 94 1,600 -240 Level Miami Center
11:09PM 27.6961 -80.5389 110° East 87 100 1,200 -180 Descending Miami Center
11:10PM 27.6883 -80.5153 110° East 87 100 1,300  Climbing Miami Center
11:11PM 27.6767 -80.4914 119° Southeast 87 100 1,200 -360 Descending Miami Center
11:12PM 27.6708 -80.4678 106° East 81 93 600 -420 Descending Miami Center
11:13PM 27.6650 -80.4464 107° East 70 81 400 -240 Descending Miami Center
11:14PM 27.6572 -80.4297 118° Southeast 70 81 200  Descending Miami Center
11:15PM 27.6514 -80.4061 106° East 100 115 500 420 Climbing Miami Center
11:16PM 27.6683 -80.4044 North 45 52 1,100 1,260 Climbing Miami Center
11:17PM 27.6911 -80.4144 339° North 70 81 3,000 600 Climbing Miami Center
11:18PM 27.7117 -80.4244 337° Northwest 90 104 2,300 -120 Descending Miami Center
11:19PM 27.7344 -80.4300 348° North 90 104 2,800 300 Climbing Miami Center
11:20PM 27.7461 -80.4631 292° West 92 106 3,000 60 Climbing Miami Center
11:21PM 27.7536 -80.4961 284° West 106 122 3,000  Level Miami Center
11:22PM 27.7611 -80.5292 284° West 111 128 3,100 300 Climbing Miami Center
11:23PM 27.7422 -80.5333 191° South 64 74 3,600 420 Climbing Miami Center
11:24PM 27.7194 -80.5325 178° South 72 83 4,000 240 Climbing Miami Center
11:25PM 27.6881 -80.5269 171° South 100 115 4,100  Climbing Miami Center
11:26PM 27.6611 -80.5236 174° South 105 121 4,000 -60 Descending Miami Center
11:27PM 27.6339 -80.5228 178° South 105 121 4,000  Level Miami Center
11:28PM 27.6092 -80.5197 174° South 105 121 4,000 -120 Level Miami Center
11:29PM 27.5797 -80.5211 182° South 105 121 3,800 -480 Descending Miami Center
11:30PM 27.5544 -80.5272 192° South 105 121 3,100 -840 Descending Miami Center
11:31PM 27.5292 -80.5358 197° South 105 121 2,200 -540 Descending Miami Center
11:32PM 27.5061 -80.5397 189° South 105 121 2,100 -120 Descending Miami Center
11:33PM 27.4983 -80.5186 113° Southeast 72 83 2,000 -180 Descending Miami Center
11:34PM 27.4883 -80.4994 120° Southeast 72 83 1,800 -240 Descending Miami Center